Time;durP1;ratioP1;P1;durP2;ratioP2;P2;SDS_P1;SDS_P2;PMS_P1;PMS_P2;Temp;Humidity;BMP_temperature;BMP_pressure;BME280_temperature;BME280_humidity;BME280_pressure;Samples;Min_cycle;Max_cycle;Signal;HPM_P1;HPM_P2
2023/02/17 00:01:41;;;;;;;55.83;23.35;;;;;;;1.26;75.90;100349.66;1687152;85;21476;-67
2023/02/17 00:04:12;;;;;;;58.30;23.73;;;;;;;1.28;75.89;100352.56;1687148;85;21507;-66
2023/02/17 00:06:41;;;;;;;69.75;26.30;;;;;;;1.29;75.90;100349.37;1687495;85;21490;-67
2023/02/17 00:09:10;;;;;;;78.45;30.45;;;;;;;1.27;75.91;100345.47;1687138;85;21725;-66
2023/02/17 00:11:40;;;;;;;67.90;26.93;;;;;;;1.25;75.89;100346.10;1687446;85;21008;-66
2023/02/17 00:14:11;;;;;;;60.10;25.82;;;;;;;1.27;76.00;100344.61;1687270;85;21063;-67
2023/02/17 00:16:40;;;;;;;64.27;25.60;;;;;;;1.27;76.00;100346.81;1687173;85;21024;-66
2023/02/17 00:19:31;;;;;;;52.55;21.52;;;;;;;1.28;76.00;100338.22;1687229;85;21080;-67
2023/02/17 00:21:40;;;;;;;49.30;20.95;;;;;;;1.29;76.00;100334.53;1678629;85;21115;-67
2023/02/17 00:24:09;;;;;;;51.45;20.88;;;;;;;1.29;75.96;100338.58;1687558;85;21043;-66
2023/02/17 00:26:38;;;;;;;44.95;19.67;;;;;;;1.31;75.97;100337.97;1687634;85;21058;-66
2023/02/17 00:29:08;;;;;;;41.73;18.85;;;;;;;1.32;75.93;100322.63;1687224;85;21468;-67
2023/02/17 00:31:37;;;;;;;41.68;18.50;;;;;;;1.34;75.98;100316.09;1687521;85;21000;-68
2023/02/17 00:34:06;;;;;;;44.18;18.92;;;;;;;1.37;75.89;100320.36;1687371;85;21000;-67
2023/02/17 00:36:36;;;;;;;45.08;20.00;;;;;;;1.37;75.83;100317.66;1687274;85;21447;-67
2023/02/17 00:39:05;;;;;;;39.53;17.05;;;;;;;1.36;75.77;100319.51;1687264;85;21032;-68
2023/02/17 00:41:34;;;;;;;38.98;16.95;;;;;;;1.36;75.74;100322.21;1687380;85;21519;-67
2023/02/17 00:44:04;;;;;;;34.90;15.50;;;;;;;1.35;75.66;100321.85;1687434;84;21127;-67
2023/02/17 00:46:32;;;;;;;37.48;16.40;;;;;;;1.34;75.68;100322.84;1687451;85;21068;-66
2023/02/17 00:49:03;;;;;;;32.85;15.13;;;;;;;1.35;75.65;100324.55;1687518;85;21472;-67
2023/02/17 00:51:32;;;;;;;41.73;17.60;;;;;;;1.36;75.62;100318.66;1687516;85;21039;-65
2023/02/17 00:54:02;;;;;;;37.28;16.67;;;;;;;1.37;75.54;100319.86;1687292;85;21440;-67
2023/02/17 00:56:30;;;;;;;39.18;17.35;;;;;;;1.36;75.54;100312.77;1687568;85;21056;-67
2023/02/17 00:58:59;;;;;;;34.60;16.45;;;;;;;1.37;75.58;100314.47;1687229;85;21019;-67
2023/02/17 01:01:28;;;;;;;40.20;18.12;;;;;;;1.39;75.62;100308.43;1687253;85;21409;-67
2023/02/17 01:03:59;;;;;;;37.80;16.95;;;;;;;1.41;75.57;100295.64;1687372;85;20989;-67
2023/02/17 01:06:32;;;;;;;35.23;16.60;;;;;;;1.41;75.56;100294.30;1687263;85;21542;-67
2023/02/17 01:09:01;;;;;;;37.65;16.15;;;;;;;1.43;75.58;100300.41;1687461;85;21467;-67
2023/02/17 01:11:32;;;;;;;39.63;16.77;;;;;;;1.45;75.62;100295.72;1687174;85;21004;-67
2023/02/17 01:14:01;;;;;;;38.63;15.48;;;;;;;1.45;75.54;100291.67;1687519;85;21000;-67
2023/02/17 01:16:36;;;;;;;33.13;15.30;;;;;;;1.45;75.55;100292.16;1687039;85;21123;-67
2023/02/17 01:19:11;;;;;;;36.25;16.48;;;;;;;1.45;75.50;100288.97;1687234;85;20976;-66
2023/02/17 01:21:39;;;;;;;36.70;16.37;;;;;;;1.45;75.55;100288.12;1687402;85;21426;-66
2023/02/17 01:24:11;;;;;;;34.48;16.55;;;;;;;1.45;75.59;100284.92;1687462;85;20992;-68
2023/02/17 01:26:39;;;;;;;38.15;17.10;;;;;;;1.48;75.60;100281.08;1687477;85;21020;-67
2023/02/17 01:29:09;;;;;;;38.78;16.23;;;;;;;1.50;75.64;100285.34;1687380;85;21083;-65
2023/02/17 01:31:39;;;;;;;41.18;17.42;;;;;;;1.50;75.60;100277.24;1687520;85;21464;-67
2023/02/17 01:34:09;;;;;;;38.13;16.95;;;;;;;1.50;75.59;100266.95;1687470;83;21012;-67
2023/02/17 01:36:38;;;;;;;40.08;16.75;;;;;;;1.50;75.59;100277.73;1687363;85;21484;-66
2023/02/17 01:39:07;;;;;;;40.88;18.37;;;;;;;1.52;75.59;100275.25;1687422;85;21036;-66
2023/02/17 01:41:35;;;;;;;39.70;17.60;;;;;;;1.54;75.51;100275.11;1687543;85;21020;-67
2023/02/17 01:44:17;;;;;;;42.75;18.25;;;;;;;1.55;75.52;100275.47;1686743;84;21501;-66
2023/02/17 01:46:48;;;;;;;46.45;19.25;;;;;;;1.56;75.46;100275.32;1685359;85;21032;-67
2023/02/17 01:49:39;;;;;;;50.85;19.20;;;;;;;1.56;75.41;100268.58;1685090;85;21440;-67
2023/02/17 01:52:19;;;;;;;45.05;18.32;;;;;;;1.58;75.40;100271.98;1685019;85;21008;-66
2023/02/17 01:55:05;;;;;;;47.30;18.52;;;;;;;1.60;75.37;100277.23;1685320;85;21019;-65
2023/02/17 01:57:36;;;;;;;39.85;17.77;;;;;;;1.60;75.29;100278.59;1685184;85;21592;-64
2023/02/17 02:00:08;;;;;;;43.73;16.97;;;;;;;1.59;75.35;100279.09;1685152;85;21045;-66
2023/02/17 02:02:46;;;;;;;39.33;17.73;;;;;;;1.58;75.35;100277.38;1685265;85;21094;-66
2023/02/17 02:05:16;;;;;;;46.98;18.05;;;;;;;1.61;75.43;100276.23;1684996;85;21024;-65
2023/02/17 02:07:45;;;;;;;43.20;18.00;;;;;;;1.59;75.45;100281.79;1685076;85;21077;-65
2023/02/17 02:10:14;;;;;;;40.83;17.25;;;;;;;1.58;75.44;100277.87;1685082;85;21503;-67
2023/02/17 02:12:43;;;;;;;43.58;19.17;;;;;;;1.59;75.51;100280.44;1685266;85;21585;-66
2023/02/17 02:15:20;;;;;;;39.85;17.05;;;;;;;1.57;75.51;100272.98;1685050;83;21064;-66
2023/02/17 02:18:17;;;;;;;46.88;18.23;;;;;;;1.56;75.64;100271.27;1685192;85;21440;-66
2023/02/17 02:21:19;;;;;;;34.35;15.58;;;;;;;1.58;75.68;100271.13;1684699;85;21481;-65
2023/02/17 02:24:05;;;;;;;35.23;15.20;;;;;;;1.61;75.75;100268.64;1702687;83;21108;-66
2023/02/17 02:26:59;;;;;;;39.30;16.67;;;;;;;1.63;75.73;100266.64;1681822;84;21103;-65
2023/02/17 02:29:49;;;;;;;36.45;14.70;;;;;;;1.64;75.72;100257.05;1711492;84;21044;-66
2023/02/17 02:32:49;;;;;;;34.85;15.85;;;;;;;1.66;75.73;100264.51;1711468;84;21528;-66
2023/02/17 02:35:29;;;;;;;32.67;14.45;;;;;;;1.64;75.72;100260.25;1711532;83;21056;-67
2023/02/17 02:38:13;;;;;;;32.65;14.75;;;;;;;1.67;75.80;100259.96;1691843;84;21052;-65
2023/02/17 02:40:49;;;;;;;32.45;13.68;;;;;;;1.70;75.85;100255.62;1711276;84;21539;-67
2023/02/17 02:43:19;;;;;;;29.27;13.40;;;;;;;1.74;75.93;100258.39;1711338;84;21052;-67
2023/02/17 02:45:48;;;;;;;31.17;13.72;;;;;;;1.77;75.96;100252.70;1691004;84;21076;-66
2023/02/17 02:48:18;;;;;;;31.07;13.50;;;;;;;1.79;75.99;100254.25;1711302;84;21518;-68
2023/02/17 02:50:58;;;;;;;32.10;13.90;;;;;;;1.80;76.00;100253.26;1711588;83;21075;-66
2023/02/17 02:53:50;;;;;;;26.23;12.70;;;;;;;1.81;76.07;100263.56;1711592;83;20997;-66
2023/02/17 02:56:50;;;;;;;33.98;13.18;;;;;;;1.84;76.14;100267.33;1651892;86;21096;-67
2023/02/17 02:59:52;;;;;;;26.55;12.40;;;;;;;1.85;76.21;100264.98;1659292;86;21107;-67
2023/02/17 03:02:32;;;;;;;31.82;13.15;;;;;;;1.91;76.51;100268.45;1659308;85;21490;-67
2023/02/17 03:05:27;;;;;;;33.98;14.43;;;;;;;1.99;76.64;100274.51;1663236;86;21488;-65
2023/02/17 03:08:14;;;;;;;31.87;13.65;;;;;;;2.04;76.71;100280.33;1653160;86;21620;-67
2023/02/17 03:10:49;;;;;;;31.93;13.50;;;;;;;2.09;76.85;100284.29;1663244;85;21092;-65
2023/02/17 03:13:19;;;;;;;32.00;13.98;;;;;;;2.14;76.90;100278.45;1663305;86;21040;-66
2023/02/17 03:15:48;;;;;;;30.92;14.03;;;;;;;2.19;76.94;100281.56;1638358;86;21058;-67
2023/02/17 03:18:17;;;;;;;32.85;14.45;;;;;;;2.22;76.93;100283.47;1655705;87;21059;-68
2023/02/17 03:20:54;;;;;;;29.30;13.62;;;;;;;2.25;76.79;100285.52;1655742;86;21479;-66
2023/02/17 03:23:22;;;;;;;25.90;12.23;;;;;;;2.22;76.88;100279.42;1655687;87;21206;-67
2023/02/17 03:25:52;;;;;;;29.10;13.05;;;;;;;2.26;77.01;100279.12;1655492;87;21439;-66
2023/02/17 03:28:21;;;;;;;29.80;13.58;;;;;;;2.28;77.10;100283.88;1655438;87;21093;-66
2023/02/17 03:30:49;;;;;;;27.93;13.03;;;;;;;2.28;77.16;100284.73;1634506;87;21654;-67
2023/02/17 03:33:19;;;;;;;28.55;13.05;;;;;;;2.32;77.21;100283.94;1655386;87;21565;-67
2023/02/17 03:35:47;;;;;;;28.17;13.10;;;;;;;2.34;77.22;100281.94;1655474;87;21326;-66
2023/02/17 03:38:16;;;;;;;31.80;14.10;;;;;;;2.38;77.21;100278.79;1655613;86;21109;-66
2023/02/17 03:40:45;;;;;;;27.77;13.35;;;;;;;2.40;77.18;100278.14;1655424;87;21588;-66
2023/02/17 03:43:15;;;;;;;32.80;14.30;;;;;;;2.41;77.15;100281.20;1655416;87;21541;-65
2023/02/17 03:45:45;;;;;;;33.20;14.55;;;;;;;2.42;77.17;100279.34;1666913;85;21073;-67
2023/02/17 03:48:16;;;;;;;33.98;15.30;;;;;;;2.42;77.16;100276.64;1673731;86;21018;-66
2023/02/17 03:50:45;;;;;;;31.93;13.75;;;;;;;2.43;77.18;100280.55;1673768;86;21543;-65
2023/02/17 03:53:14;;;;;;;38.78;15.78;;;;;;;2.41;77.22;100283.90;1673991;86;21113;-66
2023/02/17 03:55:43;;;;;;;32.75;15.72;;;;;;;2.42;77.28;100288.30;1674121;86;21557;-67
2023/02/17 03:58:12;;;;;;;34.45;15.38;;;;;;;2.43;77.29;100282.40;1674006;86;21026;-66
2023/02/17 04:00:40;;;;;;;35.78;15.40;;;;;;;2.43;77.32;100287.80;1673851;86;21491;-65
2023/02/17 04:03:10;;;;;;;34.08;14.75;;;;;;;2.42;77.34;100284.75;1673697;84;21137;-65
2023/02/17 04:05:39;;;;;;;31.97;14.93;;;;;;;2.41;77.44;100292.52;1674092;86;21462;-66
2023/02/17 04:08:08;;;;;;;38.48;15.58;;;;;;;2.42;77.55;100286.95;1673794;86;21512;-67
2023/02/17 04:10:38;;;;;;;37.08;16.67;;;;;;;2.43;77.55;100285.11;1673884;86;21486;-68
2023/02/17 04:13:06;;;;;;;37.65;16.37;;;;;;;2.42;77.55;100285.61;1674047;86;21058;-65
2023/02/17 04:15:37;;;;;;;42.03;17.00;;;;;;;2.41;77.52;100289.31;1673748;86;21030;-68
2023/02/17 04:18:05;;;;;;;42.90;17.07;;;;;;;2.41;77.64;100280.34;1674167;86;21545;-65
2023/02/17 04:20:35;;;;;;;36.73;16.12;;;;;;;2.42;77.70;100286.11;1674092;86;21527;-66
2023/02/17 04:23:04;;;;;;;36.85;16.52;;;;;;;2.43;77.68;100288.66;1674084;86;21062;-67
2023/02/17 04:25:36;;;;;;;39.73;16.80;;;;;;;2.44;77.72;100290.86;1674088;86;21034;-66
2023/02/17 04:28:05;;;;;;;33.18;15.35;;;;;;;2.41;77.71;100292.52;1673927;86;21069;-67
2023/02/17 04:30:35;;;;;;;37.98;15.80;;;;;;;2.39;77.77;100290.45;1673794;86;21034;-68
2023/02/17 04:33:05;;;;;;;36.53;15.70;;;;;;;2.37;77.86;100287.05;1673967;86;21109;-68
2023/02/17 04:35:34;;;;;;;33.40;15.50;;;;;;;2.39;77.93;100296.72;1674330;86;21066;-66
2023/02/17 04:38:04;;;;;;;34.05;15.78;;;;;;;2.40;78.03;100290.81;1673863;86;21754;-67
2023/02/17 04:40:33;;;;;;;37.80;16.32;;;;;;;2.41;78.10;100291.16;1674102;86;21062;-66
2023/02/17 04:43:02;;;;;;;37.75;16.75;;;;;;;2.39;78.12;100289.95;1673964;86;21014;-66
2023/02/17 04:45:31;;;;;;;34.08;15.08;;;;;;;2.38;78.17;100288.25;1667989;86;21511;-67
2023/02/17 04:47:59;;;;;;;37.03;16.52;;;;;;;2.38;78.25;100290.11;1659584;86;21549;-66
2023/02/17 04:50:30;;;;;;;33.02;14.70;;;;;;;2.36;78.26;100286.70;1659448;86;21102;-68
2023/02/17 04:52:58;;;;;;;34.95;15.08;;;;;;;2.34;78.30;100294.10;1659386;86;21127;-65
2023/02/17 04:55:28;;;;;;;31.15;14.73;;;;;;;2.35;78.42;100305.27;1659338;86;21466;-66
2023/02/17 04:57:57;;;;;;;34.20;15.72;;;;;;;2.37;78.42;100303.27;1659316;86;21006;-66
2023/02/17 05:00:25;;;;;;;33.78;15.50;;;;;;;2.38;78.43;100306.33;1659618;86;21102;-67
2023/02/17 05:02:54;;;;;;;35.78;16.32;;;;;;;2.36;78.39;100306.97;1659308;86;21420;-64
2023/02/17 05:05:23;;;;;;;35.17;16.30;;;;;;;2.36;78.50;100305.63;1659300;86;21498;-66
2023/02/17 05:07:52;;;;;;;36.35;16.27;;;;;;;2.35;78.51;100306.13;1659484;86;21105;-67
2023/02/17 05:10:23;;;;;;;34.15;15.03;;;;;;;2.33;78.56;100301.86;1659314;86;21038;-67
2023/02/17 05:12:53;;;;;;;35.45;15.78;;;;;;;2.34;78.65;100306.27;1659301;86;21065;-67
2023/02/17 05:15:25;;;;;;;35.60;16.15;;;;;;;2.31;78.71;100311.47;1659372;86;21447;-66
2023/02/17 05:17:54;;;;;;;34.15;15.53;;;;;;;2.31;78.80;100310.63;1659391;86;21513;-67
2023/02/17 05:20:22;;;;;;;35.52;15.83;;;;;;;2.33;78.88;100305.91;1659348;86;21447;-66
2023/02/17 05:22:52;;;;;;;40.83;16.95;;;;;;;2.34;78.92;100312.53;1659267;86;21082;-66
2023/02/17 05:25:21;;;;;;;34.80;16.07;;;;;;;2.36;78.95;100309.67;1659491;86;21233;-65
2023/02/17 05:27:50;;;;;;;35.20;15.60;;;;;;;2.37;78.90;100314.94;1659510;86;21494;-66
2023/02/17 05:30:19;;;;;;;34.50;15.30;;;;;;;2.37;78.89;100315.44;1659482;86;21490;-67
2023/02/17 05:32:50;;;;;;;35.48;15.80;;;;;;;2.37;78.93;100308.67;1659506;86;21116;-66
2023/02/17 05:35:20;;;;;;;34.48;15.70;;;;;;;2.37;79.01;100308.67;1659299;86;21452;-66
2023/02/17 05:37:52;;;;;;;35.65;15.85;;;;;;;2.39;79.05;100317.49;1659722;86;21102;-66
2023/02/17 05:40:21;;;;;;;34.05;15.72;;;;;;;2.38;79.05;100319.84;1659823;86;21082;-65
2023/02/17 05:42:51;;;;;;;36.45;16.57;;;;;;;2.37;79.14;100330.30;1659277;86;21058;-66
2023/02/17 05:45:21;;;;;;;38.05;17.05;;;;;;;2.39;79.21;100328.31;1659540;86;21098;-67
2023/02/17 05:47:49;;;;;;;37.88;16.15;;;;;;;2.40;79.22;100334.06;1659345;86;21039;-69
2023/02/17 05:50:18;;;;;;;34.23;15.80;;;;;;;2.43;79.25;100332.42;1659622;86;21085;-67
2023/02/17 05:52:49;;;;;;;39.65;16.05;;;;;;;2.43;79.23;100344.09;1659495;86;21094;-67
2023/02/17 05:55:18;;;;;;;38.20;17.25;;;;;;;2.45;79.25;100348.00;1659469;86;21047;-67
2023/02/17 05:57:49;;;;;;;36.70;16.45;;;;;;;2.49;79.24;100345.36;1659588;86;21042;-66
2023/02/17 06:00:20;;;;;;;36.17;16.77;;;;;;;2.50;79.25;100345.20;1659316;86;21090;-66
2023/02/17 06:02:49;;;;;;;34.92;16.73;;;;;;;2.52;79.22;100342.36;1659659;86;21102;-68
2023/02/17 06:05:17;;;;;;;33.78;16.30;;;;;;;2.54;79.21;100341.70;1659494;86;21059;-68
2023/02/17 06:07:46;;;;;;;30.32;14.30;;;;;;;2.57;79.18;100347.32;1659394;86;21544;-67
2023/02/17 06:10:18;;;;;;;33.53;15.43;;;;;;;2.59;79.19;100343.97;1659307;86;21102;-68
2023/02/17 06:12:49;;;;;;;31.00;15.00;;;;;;;2.62;79.17;100354.52;1659520;86;21502;-67
2023/02/17 06:15:18;;;;;;;33.00;15.38;;;;;;;2.64;79.02;100361.98;1659272;86;21497;-68
2023/02/17 06:17:46;;;;;;;32.70;14.80;;;;;;;2.65;78.88;100351.52;1659531;86;21486;-67
2023/02/17 06:20:17;;;;;;;35.23;16.37;;;;;;;2.61;78.73;100360.44;1659515;86;21023;-67
2023/02/17 06:22:46;;;;;;;37.93;15.25;;;;;;;2.59;78.66;100365.11;1659487;86;21551;-67
2023/02/17 06:25:15;;;;;;;35.10;15.55;;;;;;;2.61;78.66;100366.34;1659246;86;21482;-66
2023/02/17 06:27:44;;;;;;;32.42;15.48;;;;;;;2.63;78.55;100362.98;1659550;86;21572;-67
2023/02/17 06:30:16;;;;;;;30.97;14.28;;;;;;;2.65;78.37;100369.95;1659364;86;21078;-66
2023/02/17 06:32:45;;;;;;;28.95;13.58;;;;;;;2.64;78.03;100373.66;1659276;86;21498;-68
2023/02/17 06:35:16;;;;;;;28.87;14.03;;;;;;;2.64;77.74;100380.42;1659408;86;21058;-67
2023/02/17 06:37:44;;;;;;;28.25;12.95;;;;;;;2.59;77.52;100383.19;1659422;86;21074;-67
2023/02/17 06:40:15;;;;;;;26.10;12.55;;;;;;;2.55;77.40;100382.63;1659493;86;21502;-67
2023/02/17 06:42:45;;;;;;;27.25;13.18;;;;;;;2.53;77.29;100388.68;1659306;86;21098;-66
2023/02/17 06:45:15;;;;;;;26.40;12.45;;;;;;;2.50;77.18;100393.03;1659288;86;21074;-68
2023/02/17 06:47:45;;;;;;;29.42;12.13;;;;;;;2.48;76.98;100397.23;1659316;86;21039;-67
2023/02/17 06:50:15;;;;;;;29.82;12.37;;;;;;;2.47;76.90;100393.32;1659530;86;21090;-67
2023/02/17 06:52:45;;;;;;;27.52;11.85;;;;;;;2.49;76.75;100392.67;1659267;86;21482;-67
2023/02/17 06:55:14;;;;;;;23.27;12.18;;;;;;;2.46;76.51;100397.03;1659238;86;21532;-66
2023/02/17 06:57:44;;;;;;;28.92;13.03;;;;;;;2.43;76.49;100395.97;1659345;86;21053;-68
2023/02/17 07:00:15;;;;;;;30.10;12.78;;;;;;;2.37;76.51;100396.05;1659265;86;21467;-68
2023/02/17 07:02:44;;;;;;;27.70;12.93;;;;;;;2.35;76.59;100389.94;1659422;86;21196;-68
2023/02/17 07:05:13;;;;;;;26.75;11.90;;;;;;;2.36;76.54;100393.49;1659492;86;21034;-67
2023/02/17 07:07:44;;;;;;;35.83;14.87;;;;;;;2.38;76.48;100401.81;1659450;86;21074;-67
2023/02/17 07:10:14;;;;;;;34.53;14.00;;;;;;;2.37;76.43;100404.16;1659309;86;21509;-67
2023/02/17 07:12:45;;;;;;;32.08;13.50;;;;;;;2.37;76.43;100406.01;1659292;86;21086;-67
2023/02/17 07:15:16;;;;;;;27.02;12.95;;;;;;;2.36;76.41;100409.72;1659242;86;21513;-67
2023/02/17 07:17:45;;;;;;;27.95;12.00;;;;;;;2.35;76.45;100413.41;1659716;86;21491;-68
2023/02/17 07:20:14;;;;;;;25.08;12.25;;;;;;;2.36;76.41;100419.17;1659282;86;21501;-67
2023/02/17 07:22:43;;;;;;;25.90;12.25;;;;;;;2.36;76.25;100415.12;1659227;86;21074;-66
2023/02/17 07:25:12;;;;;;;29.75;12.30;;;;;;;2.34;76.10;100426.08;1659561;86;21058;-70
2023/02/17 07:27:42;;;;;;;27.58;11.70;;;;;;;2.32;76.06;100422.67;1659374;86;21039;-67
2023/02/17 07:30:12;;;;;;;31.15;12.78;;;;;;;2.33;76.05;100424.88;1659350;86;21615;-68
2023/02/17 07:32:40;;;;;;;30.12;12.70;;;;;;;2.32;75.92;100421.81;1659379;86;21050;-67
2023/02/17 07:35:09;;;;;;;24.77;10.98;;;;;;;2.33;75.82;100427.58;1659723;86;21042;-68
2023/02/17 07:37:38;;;;;;;29.10;12.43;;;;;;;2.31;75.87;100426.37;1659607;86;21516;-67
2023/02/17 07:40:07;;;;;;;27.40;11.80;;;;;;;2.31;75.75;100421.45;1659337;86;21039;-68
2023/02/17 07:42:38;;;;;;;29.77;12.50;;;;;;;2.28;75.67;100423.09;1659190;86;21071;-69
2023/02/17 07:45:07;;;;;;;24.72;11.75;;;;;;;2.27;75.71;100421.39;1659312;86;21042;-68
2023/02/17 07:47:37;;;;;;;25.92;11.57;;;;;;;2.31;75.81;100428.22;1659297;85;21039;-69
2023/02/17 07:50:07;;;;;;;25.60;10.70;;;;;;;2.36;75.78;100429.99;1659374;86;21462;-68
2023/02/17 07:52:37;;;;;;;32.10;12.75;;;;;;;2.38;75.66;100430.70;1659640;86;21474;-68
2023/02/17 07:55:07;;;;;;;26.85;11.75;;;;;;;2.38;75.58;100431.55;1659316;86;21466;-68
2023/02/17 07:57:36;;;;;;;34.10;12.60;;;;;;;2.38;75.55;100439.66;1659524;86;21051;-68
2023/02/17 08:00:07;;;;;;;30.57;11.45;;;;;;;2.36;75.53;100436.75;1659623;86;21090;-68
2023/02/17 08:02:42;;;;;;;34.65;12.33;;;;;;;2.33;75.61;100443.30;1659468;86;21100;-67
2023/02/17 08:05:13;;;;;;;37.95;12.33;;;;;;;2.32;75.63;100442.09;1659565;86;21970;-68
2023/02/17 08:07:43;;;;;;;28.07;12.53;;;;;;;2.31;75.70;100450.70;1659563;86;21071;-69
2023/02/17 08:13:19;;;;;;;34.50;12.37;;;;;;;2.34;75.61;100444.15;1659475;86;21513;-68
2023/02/17 08:15:50;;;;;;;27.05;12.28;;;;;;;2.35;75.53;100453.97;1659355;86;21034;-69
2023/02/17 08:18:19;;;;;;;39.48;13.38;;;;;;;2.33;75.39;100452.77;1659408;86;21174;-67
2023/02/17 08:20:49;;;;;;;30.27;13.20;;;;;;;2.34;75.39;100450.91;1659412;86;21102;-67
2023/02/17 08:23:20;;;;;;;26.97;12.28;;;;;;;2.36;75.39;100462.44;1659259;86;21102;-67
2023/02/17 08:25:49;;;;;;;30.35;12.98;;;;;;;2.35;75.35;100453.47;1659356;86;21075;-67
2023/02/17 08:28:20;;;;;;;25.97;12.15;;;;;;;2.35;75.36;100458.02;1659470;86;21066;-68
2023/02/17 08:30:49;;;;;;;27.35;12.18;;;;;;;2.34;75.35;100465.28;1659787;86;21075;-67
2023/02/17 08:33:18;;;;;;;53.28;13.85;;;;;;;2.32;75.36;100462.37;1659397;86;21050;-68
2023/02/17 08:35:46;;;;;;;35.17;13.93;;;;;;;2.31;75.42;100472.83;1659612;86;21062;-68
2023/02/17 08:38:15;;;;;;;37.65;13.60;;;;;;;2.29;75.49;100468.91;1659451;86;21470;-67
2023/02/17 08:40:46;;;;;;;46.48;15.63;;;;;;;2.27;75.58;100471.41;1659314;86;21051;-69
2023/02/17 08:43:16;;;;;;;48.17;14.60;;;;;;;2.29;75.81;100478.38;1659477;86;21201;-67
2023/02/17 08:45:45;;;;;;;37.05;12.80;;;;;;;2.34;75.82;100472.54;1659380;86;21043;-69
2023/02/17 08:48:14;;;;;;;37.90;14.07;;;;;;;2.37;75.79;100472.25;1659385;84;21540;-68
2023/02/17 08:50:48;;;;;;;42.48;13.90;;;;;;;2.43;75.76;100478.44;1659384;86;21054;-69
2023/02/17 08:53:18;;;;;;;46.60;15.03;;;;;;;2.45;75.61;100471.03;1660433;86;21498;-69
2023/02/17 08:55:47;;;;;;;48.25;13.88;;;;;;;2.50;75.50;100478.22;1658873;86;21111;-70
2023/02/17 08:58:18;;;;;;;35.05;13.05;;;;;;;2.52;75.23;100485.69;1661072;86;21467;-69
2023/02/17 09:00:48;;;;;;;36.85;13.00;;;;;;;2.48;74.99;100481.56;1661061;86;21483;-71
2023/02/17 09:03:19;;;;;;;41.10;13.25;;;;;;;2.47;75.69;100476.66;1661351;86;21042;-73
2023/02/17 09:05:56;;;;;;;37.93;13.98;;;;;;;2.52;75.48;100478.42;1661362;86;21501;-70
2023/02/17 09:08:25;;;;;;;43.75;14.98;;;;;;;2.53;75.31;100473.88;1660934;86;21030;-70
2023/02/17 09:10:55;;;;;;;43.73;16.25;;;;;;;2.54;75.26;100482.34;1661141;86;21082;-71
2023/02/17 09:13:25;;;;;;;41.08;15.43;;;;;;;2.56;75.36;100477.64;1661181;86;21081;-70
2023/02/17 09:15:54;;;;;;;47.98;16.70;;;;;;;2.61;76.01;100486.70;1661231;86;21039;-69
2023/02/17 09:18:25;;;;;;;40.00;15.68;;;;;;;2.61;75.80;100489.41;1661050;86;21094;-71
2023/02/17 09:20:53;;;;;;;65.28;15.32;;;;;;;2.58;75.60;100493.72;1661076;86;21467;-69
2023/02/17 09:23:22;;;;;;;35.20;13.78;;;;;;;2.57;75.51;100501.48;1661155;86;21051;-70
2023/02/17 09:26:04;;;;;;;49.25;15.32;;;;;;;2.55;75.39;100500.27;1661414;86;21067;-69
2023/02/17 09:28:34;;;;;;;48.52;15.53;;;;;;;2.50;75.35;100495.30;1661290;86;21086;-70
2023/02/17 09:31:16;;;;;;;44.30;15.53;;;;;;;2.51;75.42;100498.85;1661023;86;21482;-71
2023/02/17 09:33:46;;;;;;;40.40;15.48;;;;;;;2.52;75.40;100495.16;1661216;86;21086;-69
2023/02/17 09:36:21;;;;;;;37.90;15.93;;;;;;;2.54;75.42;100489.95;1661014;86;21091;-69
2023/02/17 09:38:50;;;;;;;57.13;16.35;;;;;;;2.57;75.44;100486.11;1660978;86;21062;-69
2023/02/17 09:41:39;;;;;;;56.90;17.17;;;;;;;2.58;75.35;100494.58;1661036;86;21110;-69
2023/02/17 09:44:27;;;;;;;43.63;15.53;;;;;;;2.58;75.28;100487.81;1576614;91;21144;-71
2023/02/17 09:47:01;;;;;;;67.10;16.40;;;;;;;2.58;75.19;100489.66;1634944;86;21559;-71
2023/02/17 09:49:45;;;;;;;53.28;17.55;;;;;;;2.56;75.22;100492.52;1653137;87;21033;-69
2023/02/17 09:52:32;;;;;;;47.95;16.85;;;;;;;2.59;75.57;100488.67;1674740;85;21497;-70
2023/02/17 09:55:18;;;;;;;39.95;16.02;;;;;;;2.64;75.55;100494.53;1680866;85;21090;-68
2023/02/17 09:57:54;;;;;;;40.58;14.53;;;;;;;2.66;75.45;100484.42;1653486;87;21046;-69
2023/02/17 10:00:48;;;;;;;33.65;14.93;;;;;;;2.67;75.09;100484.27;1653617;86;21079;-69
2023/02/17 10:03:29;;;;;;;48.92;15.08;;;;;;;2.68;75.04;100494.09;1639304;87;21051;-69
2023/02/17 10:06:13;;;;;;;40.85;15.03;;;;;;;2.76;75.34;100493.38;1642828;86;21494;-68
2023/02/17 10:09:02;;;;;;;34.08;14.55;;;;;;;2.77;75.04;100489.16;1638563;87;21070;-69
2023/02/17 10:11:56;;;;;;;47.05;15.13;;;;;;;2.80;74.87;100490.73;1638321;87;21050;-68
2023/02/17 10:15:02;;;;;;;36.55;15.28;;;;;;;2.83;74.71;100487.73;1638258;87;21089;-67
2023/02/17 10:17:47;;;;;;;52.00;15.08;;;;;;;2.85;74.57;100487.94;1633943;87;21468;-69
2023/02/17 10:20:35;;;;;;;33.02;14.53;;;;;;;2.88;74.43;100489.50;1638212;87;21089;-70
2023/02/17 10:23:15;;;;;;;49.88;16.07;;;;;;;2.88;74.31;100485.44;1638412;87;21082;-69
2023/02/17 10:26:15;;;;;;;32.25;13.48;;;;;;;2.91;74.47;100487.00;1638282;87;21563;-70
2023/02/17 10:28:55;;;;;;;28.27;13.65;;;;;;;2.91;74.52;100479.73;1653114;87;21058;-69
2023/02/17 10:31:32;;;;;;;35.48;14.13;;;;;;;2.91;74.30;100485.14;1626507;88;21125;-68
2023/02/17 10:34:07;;;;;;;35.58;14.15;;;;;;;2.90;74.24;100483.94;1653161;87;21038;-70
2023/02/17 10:36:46;;;;;;;32.30;13.68;;;;;;;2.90;74.18;100479.88;1653097;86;21761;-69
2023/02/17 10:39:44;;;;;;;34.05;13.00;;;;;;;2.88;74.19;100478.67;1626464;88;21539;-68
2023/02/17 10:42:32;;;;;;;32.73;13.20;;;;;;;2.87;74.12;100478.32;1653429;87;21051;-70
2023/02/17 10:45:33;;;;;;;35.30;13.35;;;;;;;2.92;74.14;100479.23;1653215;87;21018;-71
2023/02/17 10:48:25;;;;;;;67.90;27.52;;;;;;;2.94;73.92;100470.47;1636871;87;21506;-69
2023/02/17 10:50:53;;;;;;;29.80;12.93;;;;;;;2.94;73.96;100483.50;1669014;85;21081;-68
2023/02/17 10:53:24;;;;;;;45.15;13.98;;;;;;;2.95;73.86;100481.64;1684222;85;21085;-69
2023/02/17 10:56:06;;;;;;;35.17;13.43;;;;;;;2.96;73.87;100486.06;1684159;85;21094;-71
2023/02/17 10:59:05;;;;;;;36.85;14.45;;;;;;;2.93;73.72;100479.09;1683925;85;21034;-71
2023/02/17 11:01:35;;;;;;;39.05;12.63;;;;;;;2.94;73.78;100484.85;1683975;85;21544;-69
2023/02/17 11:04:07;;;;;;;46.73;14.15;;;;;;;2.97;73.59;100485.91;1670119;86;21179;-69
2023/02/17 11:06:41;;;;;;;30.37;13.28;;;;;;;2.97;73.49;100482.35;1684177;85;21106;-70
2023/02/17 11:09:31;;;;;;;34.55;14.33;;;;;;;2.96;73.30;100475.23;1639853;87;21547;-70
2023/02/17 11:12:03;;;;;;;34.53;14.28;;;;;;;2.93;73.26;100479.59;1684204;85;21042;-71
2023/02/17 11:14:34;;;;;;;32.60;13.95;;;;;;;2.95;73.58;100483.00;1669946;86;21045;-69
2023/02/17 11:17:29;;;;;;;28.00;12.90;;;;;;;2.99;73.31;100482.56;1660252;85;21501;-69
2023/02/17 11:20:03;;;;;;;56.10;16.00;;;;;;;3.00;73.09;100482.06;1684123;85;21109;-66
2023/02/17 11:22:39;;;;;;;37.08;13.53;;;;;;;3.00;73.11;100482.06;1684517;85;21523;-69
2023/02/17 11:25:28;;;;;;;36.73;14.35;;;;;;;3.00;72.98;100486.12;1669883;86;21129;-69
2023/02/17 11:28:03;;;;;;;33.85;13.60;;;;;;;3.02;73.06;100489.03;1684181;85;21657;-66
2023/02/17 11:30:33;;;;;;;37.03;14.68;;;;;;;3.05;72.78;100494.66;1669822;86;21081;-67
2023/02/17 11:33:18;;;;;;;31.27;14.75;;;;;;;3.04;72.62;100485.67;1684017;85;21698;-69
2023/02/17 11:35:52;;;;;;;43.02;15.43;;;;;;;3.03;72.64;100490.73;1669864;86;21073;-70
2023/02/17 11:38:28;;;;;;;37.17;14.95;;;;;;;3.03;72.78;100483.97;1683961;85;21065;-69
2023/02/17 11:41:03;;;;;;;38.50;15.30;;;;;;;3.07;73.01;100484.53;1670094;86;21082;-69
2023/02/17 11:43:33;;;;;;;52.48;19.10;;;;;;;3.08;73.09;100480.82;1684221;85;21050;-68
2023/02/17 11:46:33;;;;;;;36.90;15.72;;;;;;;3.13;73.12;100482.08;1593500;90;21039;-69
2023/02/17 11:49:19;;;;;;;48.85;16.32;;;;;;;3.16;72.94;100483.14;1568917;90;21066;-69